Cruzeiro do Sul, Brazil
Current Conditions -  °F | °C
As of 3:00 PM on Thursday 30 Oct 2014 (Local Time) from SBMO Reporting Station
Few Clouds Few Clouds  
Wind Chill: 86°   Ceiling: Unl
Heat Index: 90°   Visibility: 6mi
Dew Point: 70°   Wind: 14mph
Humidity: 58%   Direction: 100°E
Pressure: 29.91"   Gusts: NA
Location:  8.58°S, 36.3°W
Report Text: SBMO 301800Z 10012KT 9999 FEW020 30/21 Q1013
Loading
Personal Weather Stations






























Interactive Weather Map
Tropical Storm Tracking
New forecast layout! Learn more

10-Day Weather Forecast

Advertisements
Track Severe Weather on mobile